Time;durP1;ratioP1;P1;durP2;ratioP2;P2;SDS_P1;SDS_P2;PMS_P1;PMS_P2;Temp;Humidity;BMP_temperature;BMP_pressure;BME280_temperature;BME280_humidity;BME280_pressure;Samples;Min_cycle;Max_cycle;Signal;HPM_P1;HPM_P2
2021/09/28 00:00:58;;;;;;;4.80;1.70;;;;;;;13.60;100.00;101326.64;115675;1192;59061;-80
2021/09/28 00:03:25;;;;;;;4.20;1.40;;;;;;;13.63;100.00;101329.45;115589;1192;63054;-80
2021/09/28 00:05:51;;;;;;;4.70;1.80;;;;;;;13.63;100.00;101328.88;115626;1192;74753;-80
2021/09/28 00:08:18;;;;;;;2.70;1.50;;;;;;;13.64;100.00;101340.70;115691;1192;71084;-80
2021/09/28 00:10:44;;;;;;;3.20;1.40;;;;;;;13.63;100.00;101346.48;115660;1193;58883;-80
2021/09/28 00:13:12;;;;;;;3.80;1.30;;;;;;;13.61;100.00;101346.55;115649;1193;58782;-80
2021/09/28 00:15:39;;;;;;;4.20;1.50;;;;;;;13.60;100.00;101352.73;115642;1193;60804;-80
2021/09/28 00:18:05;;;;;;;4.80;2.20;;;;;;;13.58;100.00;101353.39;115709;1193;73326;-80
2021/09/28 00:20:36;;;;;;;5.40;1.60;;;;;;;13.54;100.00;101354.34;115605;1193;58892;-80
2021/09/28 00:23:06;;;;;;;4.80;1.80;;;;;;;13.52;100.00;101350.83;115666;1193;73631;-81
2021/09/28 00:25:33;;;;;;;5.70;1.60;;;;;;;13.49;100.00;101351.71;115679;1192;60873;-80
2021/09/28 00:27:59;;;;;;;5.50;1.60;;;;;;;13.43;100.00;101349.85;115665;1192;60700;-81
2021/09/28 00:30:26;;;;;;;5.60;2.10;;;;;;;13.42;100.00;101354.09;115668;1192;59611;-81
2021/09/28 00:32:52;;;;;;;5.40;1.80;;;;;;;13.40;100.00;101355.77;115573;1193;59727;-80
2021/09/28 00:35:19;;;;;;;6.30;2.10;;;;;;;13.38;100.00;101356.11;115677;1192;73319;-80
2021/09/28 00:37:46;;;;;;;4.80;2.00;;;;;;;13.38;100.00;101354.23;115591;1193;62078;-80
2021/09/28 00:40:12;;;;;;;5.30;2.60;;;;;;;13.37;100.00;101353.44;115660;1193;58902;-80
2021/09/28 00:42:39;;;;;;;6.10;1.50;;;;;;;13.36;100.00;101356.98;115649;1193;74553;-80
2021/09/28 00:45:07;;;;;;;3.80;1.60;;;;;;;13.34;100.00;101362.15;115616;1193;72175;-80
2021/09/28 00:47:35;;;;;;;4.80;1.20;;;;;;;13.32;100.00;101360.19;115652;1192;71916;-80
2021/09/28 00:50:02;;;;;;;1.90;1.10;;;;;;;13.30;100.00;101361.52;115594;1193;61877;-80
2021/09/28 00:52:31;;;;;;;2.30;1.30;;;;;;;13.28;100.00;101363.39;115666;1192;61597;-80
2021/09/28 00:54:58;;;;;;;8.30;2.20;;;;;;;13.26;100.00;101372.13;115623;1192;75596;-81
2021/09/28 00:57:25;;;;;;;11.10;2.30;;;;;;;13.25;100.00;101378.09;115618;1186;71961;-80
2021/09/28 00:59:53;;;;;;;5.60;1.50;;;;;;;13.22;100.00;101381.36;115645;1193;73636;-80
2021/09/28 01:02:21;;;;;;;4.70;1.90;;;;;;;13.20;100.00;101382.02;115664;1192;63113;-80
2021/09/28 01:04:47;;;;;;;7.20;2.90;;;;;;;13.18;100.00;101378.17;115580;1193;60059;-80
2021/09/28 01:07:14;;;;;;;6.30;2.40;;;;;;;13.16;100.00;101382.27;115621;1192;75719;-80
2021/09/28 01:09:41;;;;;;;6.60;3.20;;;;;;;13.14;100.00;101386.94;115679;1192;72023;-79
2021/09/28 01:12:10;;;;;;;7.90;2.70;;;;;;;13.12;100.00;101388.05;115646;1193;74133;-79
2021/09/28 01:14:37;;;;;;;7.40;2.30;;;;;;;13.11;100.00;101393.15;115673;1192;62070;-79
2021/09/28 01:17:16;;;;;;;6.50;2.50;;;;;;;13.09;100.00;101391.96;115655;1193;60078;-79
2021/09/28 01:19:43;;;;;;;9.10;2.90;;;;;;;13.06;100.00;101397.07;115718;1193;74706;-80
2021/09/28 01:22:13;;;;;;;5.70;2.80;;;;;;;13.04;100.00;101396.63;115721;1192;72047;-80
2021/09/28 01:24:41;;;;;;;9.00;1.90;;;;;;;13.01;100.00;101396.73;115616;1193;72231;-80
2021/09/28 01:27:08;;;;;;;5.80;2.60;;;;;;;12.98;100.00;101404.36;115563;1186;62558;-79
2021/09/28 01:29:35;;;;;;;4.40;2.20;;;;;;;12.94;100.00;101406.65;115594;1193;59817;-80
2021/09/28 01:32:02;;;;;;;7.60;2.80;;;;;;;12.90;100.00;101409.56;115627;1192;74550;-80
2021/09/28 01:34:29;;;;;;;4.70;2.50;;;;;;;12.86;100.00;101407.02;115682;1192;71116;-80
2021/09/28 01:36:56;;;;;;;7.00;2.30;;;;;;;12.80;100.00;101411.39;115684;1192;73724;-79
2021/09/28 01:39:22;;;;;;;10.50;3.30;;;;;;;12.74;100.00;101408.81;115673;1193;61741;-80
2021/09/28 01:41:52;;;;;;;5.70;2.90;;;;;;;12.71;100.00;101406.54;115683;1186;59219;-80
2021/09/28 01:44:21;;;;;;;6.10;2.50;;;;;;;12.68;100.00;101408.61;115588;1193;73312;-80
2021/09/28 01:46:49;;;;;;;8.40;3.70;;;;;;;12.64;100.00;101407.48;115674;1192;71462;-80
2021/09/28 01:49:18;;;;;;;5.90;2.40;;;;;;;12.59;100.00;101406.01;115694;1192;73705;-81
2021/09/28 01:51:44;;;;;;;8.20;3.50;;;;;;;12.55;100.00;101407.18;115687;1192;63070;-80
2021/09/28 01:54:12;;;;;;;7.40;3.10;;;;;;;12.51;100.00;101407.69;115626;1193;61378;-80
2021/09/28 01:56:39;;;;;;;7.50;2.50;;;;;;;12.47;100.00;101409.16;115669;1192;75656;-80
2021/09/28 01:59:07;;;;;;;6.10;2.90;;;;;;;12.43;100.00;101418.17;115705;1192;71524;-80
2021/09/28 02:01:34;;;;;;;12.90;3.30;;;;;;;12.40;100.00;101424.17;115664;1192;72645;-81
2021/09/28 02:04:01;;;;;;;6.70;2.40;;;;;;;12.36;100.00;101426.52;115657;1192;63719;-80
2021/09/28 02:06:29;;;;;;;6.40;2.70;;;;;;;12.33;100.00;101429.34;115619;1193;61191;-80
2021/09/28 02:08:56;;;;;;;10.30;3.20;;;;;;;12.32;100.00;101430.41;115613;1192;74560;-80
2021/09/28 02:11:23;;;;;;;7.00;3.10;;;;;;;12.28;100.00;101437.16;115631;1192;72034;-80
2021/09/28 02:13:50;;;;;;;5.70;2.60;;;;;;;12.27;100.00;101434.42;115700;1192;73666;-80
2021/09/28 02:16:18;;;;;;;15.60;3.10;;;;;;;12.25;100.00;101434.27;115648;1192;61103;-80
2021/09/28 02:18:44;;;;;;;10.20;3.10;;;;;;;12.24;100.00;101435.27;115668;1192;60336;-80
2021/09/28 02:21:11;;;;;;;4.40;2.20;;;;;;;12.21;100.00;101436.52;115677;1192;75710;-80
2021/09/28 02:23:38;;;;;;;6.10;2.90;;;;;;;12.18;100.00;101438.27;115702;1192;71124;-80
2021/09/28 02:26:04;;;;;;;9.10;3.40;;;;;;;12.15;100.00;101439.92;115673;1192;73746;-80
2021/09/28 02:28:31;;;;;;;6.30;2.70;;;;;;;12.14;100.00;101441.00;115685;1192;61846;-80
2021/09/28 02:30:58;;;;;;;10.30;2.90;;;;;;;12.12;100.00;101439.63;115813;1192;58875;-80
2021/09/28 02:33:24;;;;;;;8.40;3.50;;;;;;;12.11;100.00;101440.61;115773;1192;75653;-79
2021/09/28 02:35:51;;;;;;;6.90;3.20;;;;;;;12.10;100.00;101436.11;115704;1192;72112;-79
2021/09/28 02:38:17;;;;;;;10.10;3.10;;;;;;;12.09;100.00;101434.44;115644;1192;59496;-79
2021/09/28 02:40:44;;;;;;;6.50;2.20;;;;;;;12.09;100.00;101436.42;115702;1192;58878;-79
2021/09/28 02:43:11;;;;;;;4.50;2.30;;;;;;;12.08;100.00;101435.61;115673;1192;59312;-79
2021/09/28 02:45:37;;;;;;;12.30;3.60;;;;;;;12.05;100.00;101439.97;115598;1192;75170;-79
2021/09/28 02:48:04;;;;;;;6.20;3.00;;;;;;;12.03;100.00;101439.20;115680;1192;70970;-80
2021/09/28 02:50:33;;;;;;;7.60;3.00;;;;;;;12.01;100.00;101442.59;115683;1192;71911;-80
2021/09/28 02:53:04;;;;;;;11.20;3.30;;;;;;;12.00;100.00;101443.22;115571;1193;63121;-80
2021/09/28 02:55:30;;;;;;;8.30;3.20;;;;;;;11.99;100.00;101447.02;115699;1192;60405;-80
2021/09/28 02:57:57;;;;;;;9.60;2.90;;;;;;;11.97;100.00;101447.05;115723;1192;75605;-80
2021/09/28 03:00:24;;;;;;;7.10;2.70;;;;;;;11.95;100.00;101449.58;115633;1192;59949;-80
2021/09/28 03:02:50;;;;;;;6.50;3.40;;;;;;;11.94;100.00;101449.54;115719;1192;72642;-80
2021/09/28 03:05:17;;;;;;;5.80;2.80;;;;;;;11.91;100.00;101453.95;115612;1193;63394;-80
2021/09/28 03:07:44;;;;;;;7.40;3.20;;;;;;;11.90;100.00;101460.27;115754;1192;61734;-79
2021/09/28 03:10:11;;;;;;;5.70;2.80;;;;;;;11.88;100.00;101459.40;115600;1193;75776;-79
2021/09/28 03:12:38;;;;;;;11.20;3.20;;;;;;;11.87;100.00;101462.66;115706;1192;72213;-79
2021/09/28 03:15:05;;;;;;;6.30;3.30;;;;;;;11.86;100.00;101462.77;115675;1192;73644;-79
2021/09/28 03:17:32;;;;;;;6.00;2.70;;;;;;;11.86;100.00;101464.69;115723;1192;62632;-79
2021/09/28 03:20:00;;;;;;;7.60;2.60;;;;;;;11.86;100.00;101463.15;115645;1192;60208;-79
2021/09/28 03:22:26;;;;;;;7.70;2.90;;;;;;;11.86;100.00;101463.29;115669;1192;74507;-79
2021/09/28 03:24:53;;;;;;;9.40;3.20;;;;;;;11.86;100.00;101466.12;115702;1192;58350;-80
2021/09/28 03:27:19;;;;;;;9.70;2.90;;;;;;;11.84;100.00;101470.00;115737;1192;59156;-80
2021/09/28 03:29:46;;;;;;;6.30;2.80;;;;;;;11.82;100.00;101462.58;115845;1192;61988;-80
2021/09/28 03:32:12;;;;;;;5.70;3.20;;;;;;;11.82;100.00;101465.23;115798;1192;59270;-80
2021/09/28 03:34:39;;;;;;;4.90;3.10;;;;;;;11.81;100.00;101466.80;115754;1192;74600;-80
2021/09/28 03:37:06;;;;;;;6.30;2.90;;;;;;;11.80;100.00;101465.43;115729;1192;71146;-80
2021/09/28 03:39:32;;;;;;;6.40;2.50;;;;;;;11.80;100.00;101464.78;115714;1192;73568;-80
2021/09/28 03:41:59;;;;;;;5.60;3.20;;;;;;;11.79;100.00;101467.60;115621;1192;61969;-80
2021/09/28 03:44:26;;;;;;;8.70;3.70;;;;;;;11.78;100.00;101467.50;115771;1192;61268;-79
2021/09/28 03:46:52;;;;;;;7.50;3.30;;;;;;;11.79;100.00;101474.15;115582;1192;74568;-79
2021/09/28 03:49:19;;;;;;;9.60;3.10;;;;;;;11.78;100.00;101475.31;115758;1192;72368;-79
2021/09/28 03:51:46;;;;;;;5.90;3.30;;;;;;;11.77;100.00;101477.70;115687;1192;58908;-79
2021/09/28 03:54:12;;;;;;;4.80;2.80;;;;;;;11.77;100.00;101474.91;115799;1192;62013;-79
2021/09/28 03:56:39;;;;;;;6.10;4.00;;;;;;;11.75;100.00;101475.77;115658;1192;60333;-80
2021/09/28 03:59:06;;;;;;;6.20;3.60;;;;;;;11.73;100.00;101475.46;115723;1192;76421;-79
2021/09/28 04:01:32;;;;;;;9.60;3.40;;;;;;;11.72;100.00;101474.70;115741;1192;71697;-79
2021/09/28 04:03:59;;;;;;;9.90;3.00;;;;;;;11.73;100.00;101476.95;115727;1192;72689;-79
2021/09/28 04:06:26;;;;;;;9.80;3.10;;;;;;;11.70;100.00;101481.08;115724;1192;61954;-79
2021/09/28 04:08:52;;;;;;;6.60;4.20;;;;;;;11.68;100.00;101486.25;115741;1192;58967;-79
2021/09/28 04:11:19;;;;;;;6.90;3.20;;;;;;;11.67;100.00;101486.10;115751;1192;61225;-79
2021/09/28 04:13:47;;;;;;;14.80;5.10;;;;;;;11.66;100.00;101483.30;115727;1192;59506;-79
2021/09/28 04:16:16;;;;;;;9.20;3.30;;;;;;;11.66;100.00;101485.77;115731;1192;72525;-79
2021/09/28 04:18:45;;;;;;;8.00;3.50;;;;;;;11.66;100.00;101489.30;115742;1192;61759;-79
2021/09/28 04:21:12;;;;;;;8.40;2.80;;;;;;;11.67;100.00;101488.67;115745;1192;60221;-79
2021/09/28 04:23:39;;;;;;;6.90;3.60;;;;;;;11.69;100.00;101490.61;115779;1192;74580;-81
2021/09/28 04:26:06;;;;;;;8.00;2.90;;;;;;;11.70;100.00;101497.23;115643;1192;71177;-80
2021/09/28 04:28:33;;;;;;;6.30;3.10;;;;;;;11.73;100.00;101499.79;115498;1193;73048;-79
2021/09/28 04:31:00;;;;;;;7.60;3.60;;;;;;;11.75;100.00;101501.13;115703;1192;60911;-79
2021/09/28 04:33:27;;;;;;;14.30;3.60;;;;;;;11.75;100.00;101504.28;115754;1192;61324;-79
2021/09/28 04:35:53;;;;;;;4.80;3.90;;;;;;;11.77;100.00;101507.88;115693;1192;59019;-83
2021/09/28 04:38:20;;;;;;;8.60;4.60;;;;;;;11.77;100.00;101507.01;115605;1193;73131;-82
2021/09/28 04:40:47;;;;;;;11.60;4.90;;;;;;;11.77;100.00;101516.91;115646;1192;73690;-81
2021/09/28 04:43:13;;;;;;;9.50;4.30;;;;;;;11.74;100.00;101515.93;115686;1192;58941;-81
2021/09/28 04:45:40;;;;;;;6.30;4.20;;;;;;;11.74;100.00;101519.00;115758;1192;59801;-81
2021/09/28 04:48:06;;;;;;;13.20;5.30;;;;;;;11.74;100.00;101522.22;115692;1192;74538;-81
2021/09/28 04:50:33;;;;;;;7.30;4.70;;;;;;;11.73;100.00;101522.27;115764;1192;72109;-82
2021/09/28 04:52:59;;;;;;;7.50;5.40;;;;;;;11.72;100.00;101523.04;115729;1192;58940;-82
2021/09/28 04:55:26;;;;;;;10.50;5.20;;;;;;;11.71;100.00;101527.66;115741;1192;58926;-81
2021/09/28 04:57:53;;;;;;;11.30;6.40;;;;;;;11.68;100.00;101535.55;115762;1192;60485;-82
2021/09/28 05:00:20;;;;;;;13.00;5.90;;;;;;;11.65;100.00;101541.85;115770;1193;74306;-81
2021/09/28 05:02:47;;;;;;;12.30;5.40;;;;;;;11.63;100.00;101544.20;115828;1192;70939;-81
2021/09/28 05:05:14;;;;;;;10.90;5.80;;;;;;;11.60;100.00;101548.61;115763;1192;73496;-83
2021/09/28 05:07:40;;;;;;;14.40;5.40;;;;;;;11.58;100.00;101552.60;115797;1192;63130;-82
2021/09/28 05:10:07;;;;;;;9.90;5.30;;;;;;;11.57;100.00;101550.57;115794;1192;61249;-82
2021/09/28 05:12:35;;;;;;;11.00;5.10;;;;;;;11.56;100.00;101551.85;115769;1192;75647;-82
2021/09/28 05:15:02;;;;;;;10.40;5.50;;;;;;;11.54;100.00;101553.65;115647;1193;72056;-79
2021/09/28 05:17:29;;;;;;;10.30;6.60;;;;;;;11.53;100.00;101559.45;115769;1193;72682;-80
2021/09/28 05:19:56;;;;;;;11.40;6.30;;;;;;;11.54;100.00;101561.98;115615;1193;61776;-80
2021/09/28 05:22:22;;;;;;;7.10;4.80;;;;;;;11.55;100.00;101565.83;115810;1192;58952;-80
2021/09/28 05:24:49;;;;;;;11.30;6.40;;;;;;;11.55;100.00;101570.25;115695;1193;75770;-80
2021/09/28 05:27:15;;;;;;;14.10;6.80;;;;;;;11.55;100.00;101571.25;115727;1192;70899;-80
2021/09/28 05:29:42;;;;;;;9.60;6.80;;;;;;;11.56;100.00;101572.45;115540;1193;73703;-79
2021/09/28 05:32:09;;;;;;;11.40;6.40;;;;;;;11.56;100.00;101573.15;115861;1192;58787;-80
2021/09/28 05:34:35;;;;;;;12.10;6.20;;;;;;;11.54;100.00;101574.10;115945;1192;59903;-79
2021/09/28 05:37:02;;;;;;;12.00;6.00;;;;;;;11.50;100.00;101577.08;115940;1192;75668;-79
2021/09/28 05:39:29;;;;;;;15.30;6.50;;;;;;;11.48;100.00;101580.23;115720;1192;71151;-79
2021/09/28 05:41:55;;;;;;;11.10;7.10;;;;;;;11.44;100.00;101578.48;115975;1192;72645;-79
2021/09/28 05:44:22;;;;;;;10.40;7.20;;;;;;;11.41;100.00;101585.27;115881;1192;61811;-79
2021/09/28 05:46:48;;;;;;;10.90;6.60;;;;;;;11.38;100.00;101589.45;115905;1192;58783;-79
2021/09/28 05:49:15;;;;;;;12.90;7.80;;;;;;;11.36;100.00;101591.31;115990;1192;74813;-79
2021/09/28 05:52:01;;;;;;;17.50;9.20;;;;;;;11.36;100.00;101595.77;115872;1192;71222;-79
2021/09/28 05:54:27;;;;;;;14.40;8.10;;;;;;;11.36;100.00;101595.70;115921;1192;73808;-79
2021/09/28 05:56:54;;;;;;;15.70;9.00;;;;;;;11.38;100.00;101599.55;115720;1192;62174;-79
2021/09/28 05:59:21;;;;;;;11.50;7.30;;;;;;;11.42;100.00;101603.27;115683;1193;60031;-79
2021/09/28 06:01:49;;;;;;;14.20;7.50;;;;;;;11.43;100.00;101606.50;115697;1192;74532;-79
2021/09/28 06:04:16;;;;;;;12.40;8.00;;;;;;;11.43;100.00;101605.80;115679;1192;71399;-79
2021/09/28 06:06:43;;;;;;;12.00;7.80;;;;;;;11.42;100.00;101608.36;115769;1192;73690;-79
2021/09/28 06:09:09;;;;;;;15.20;9.00;;;;;;;11.42;100.00;101601.11;115894;1192;62941;-80
2021/09/28 06:11:36;;;;;;;13.50;7.90;;;;;;;11.42;100.00;101604.48;115651;1192;60723;-80
2021/09/28 06:14:02;;;;;;;12.60;8.00;;;;;;;11.42;100.00;101610.34;115920;1192;58937;-79
2021/09/28 06:16:29;;;;;;;13.70;8.10;;;;;;;11.44;100.00;101613.72;115957;1192;58827;-79
2021/09/28 06:18:56;;;;;;;12.10;8.70;;;;;;;11.48;100.00;101614.50;115920;1192;73850;-79
2021/09/28 06:21:22;;;;;;;16.00;8.80;;;;;;;11.53;100.00;101614.16;115846;1192;58856;-79
2021/09/28 06:23:49;;;;;;;13.30;8.80;;;;;;;11.58;100.00;101612.39;115892;1192;58868;-78
2021/09/28 06:26:15;;;;;;;10.90;7.60;;;;;;;11.65;100.00;101612.25;115842;1192;74675;-79
2021/09/28 06:28:42;;;;;;;20.40;7.90;;;;;;;11.71;100.00;101613.20;115887;1192;59199;-78
2021/09/28 06:31:08;;;;;;;12.80;7.90;;;;;;;11.80;100.00;101613.02;115800;1192;58790;-78
2021/09/28 06:33:35;;;;;;;15.50;8.60;;;;;;;11.91;100.00;101616.43;115866;1192;59648;-78
2021/09/28 06:36:01;;;;;;;16.40;8.90;;;;;;;12.00;100.00;101614.61;115918;1192;58780;-80
2021/09/28 06:38:28;;;;;;;18.30;8.10;;;;;;;12.08;100.00;101612.90;115872;1192;75799;-80
2021/09/28 06:40:54;;;;;;;18.00;8.60;;;;;;;12.21;100.00;101618.41;115960;1192;58244;-80
2021/09/28 06:43:21;;;;;;;13.60;7.50;;;;;;;12.36;100.00;101619.58;115944;1192;58778;-80
2021/09/28 06:45:48;;;;;;;14.50;7.70;;;;;;;12.49;100.00;101626.69;115735;1192;61732;-80
2021/09/28 06:48:16;;;;;;;11.10;6.90;;;;;;;12.61;99.69;101626.63;115908;1192;59199;-80
2021/09/28 06:50:43;;;;;;;11.00;6.30;;;;;;;12.72;99.08;101626.54;115926;1192;75423;-81
2021/09/28 06:53:09;;;;;;;12.90;6.90;;;;;;;12.84;98.76;101629.29;115676;1192;71145;-79
2021/09/28 06:55:37;;;;;;;9.90;6.40;;;;;;;12.97;98.25;101629.66;115897;1192;73618;-80
2021/09/28 06:58:05;;;;;;;14.00;6.90;;;;;;;13.08;97.39;101632.70;115851;1192;61919;-78
2021/09/28 07:00:32;;;;;;;11.50;6.00;;;;;;;13.20;97.22;101632.05;115920;1192;61291;-78
2021/09/28 07:02:59;;;;;;;7.30;4.70;;;;;;;13.31;96.81;101634.92;115858;1192;75582;-78
2021/09/28 07:05:27;;;;;;;11.30;6.60;;;;;;;13.38;94.48;101635.74;115889;1192;70944;-78
2021/09/28 07:07:53;;;;;;;9.20;5.00;;;;;;;13.42;93.76;101637.36;115658;1193;72590;-78
2021/09/28 07:10:20;;;;;;;7.60;4.40;;;;;;;13.48;94.02;101636.66;115781;1193;63005;-78
2021/09/28 07:12:47;;;;;;;10.00;5.70;;;;;;;13.52;92.96;101640.35;115828;1193;62076;-78
2021/09/28 07:15:13;;;;;;;9.30;4.20;;;;;;;13.58;93.52;101643.69;115895;1192;74646;-78
2021/09/28 07:17:40;;;;;;;10.70;4.70;;;;;;;13.65;93.41;101644.17;115947;1192;58907;-78
2021/09/28 07:20:07;;;;;;;9.30;4.80;;;;;;;13.70;92.60;101647.55;115866;1192;73877;-79
2021/09/28 07:22:34;;;;;;;11.10;5.50;;;;;;;13.72;91.39;101647.84;115749;1193;61980;-79
2021/09/28 07:25:00;;;;;;;9.60;5.10;;;;;;;13.77;91.25;101651.53;115727;1193;60185;-79
2021/09/28 07:27:47;;;;;;;6.30;4.40;;;;;;;13.81;90.93;101652.02;115879;1192;76514;-79
2021/09/28 07:30:14;;;;;;;11.70;6.00;;;;;;;13.83;90.59;101647.35;115702;1193;59030;-79
2021/09/28 07:32:41;;;;;;;7.60;4.30;;;;;;;13.84;89.97;101652.37;115851;1192;73621;-79
2021/09/28 07:35:08;;;;;;;12.40;4.40;;;;;;;13.85;89.24;101651.13;115657;1193;62312;-79
2021/09/28 07:37:35;;;;;;;12.50;4.40;;;;;;;13.85;89.81;101655.63;115910;1193;61467;-79
2021/09/28 07:40:02;;;;;;;8.70;5.20;;;;;;;13.88;89.71;101649.98;115991;1192;59093;-78
2021/09/28 07:42:30;;;;;;;7.50;4.60;;;;;;;13.94;89.66;101652.45;115727;1193;72193;-78
2021/09/28 07:44:58;;;;;;;10.50;4.30;;;;;;;14.01;88.71;101652.46;115884;1192;73462;-77
2021/09/28 07:47:25;;;;;;;8.20;3.80;;;;;;;14.11;88.85;101655.74;115831;1192;63107;-78
2021/09/28 07:49:52;;;;;;;17.70;6.30;;;;;;;14.21;88.60;101656.28;115886;1192;61228;-78
2021/09/28 07:52:18;;;;;;;9.40;4.00;;;;;;;14.32;88.13;101654.19;115830;1193;74543;-78
2021/09/28 07:54:45;;;;;;;7.10;3.40;;;;;;;14.42;87.17;101654.17;115875;1192;59048;-78
2021/09/28 07:57:12;;;;;;;11.20;5.00;;;;;;;14.46;86.36;101654.50;115918;1192;60040;-77
2021/09/28 07:59:38;;;;;;;11.40;4.90;;;;;;;14.53;86.21;101656.27;115868;1192;61947;-77
2021/09/28 08:02:06;;;;;;;20.80;13.90;;;;;;;14.62;86.04;101655.02;115815;1192;60011;-77
2021/09/28 08:04:38;;;;;;;13.30;6.20;;;;;;;14.71;86.03;101656.47;115704;1192;76158;-78
2021/09/28 08:07:07;;;;;;;10.60;4.70;;;;;;;14.77;83.96;101660.96;115721;1192;71091;-78
2021/09/28 08:09:34;;;;;;;13.60;5.80;;;;;;;14.79;83.61;101659.21;115699;1193;72494;-77
2021/09/28 08:12:01;;;;;;;11.60;5.90;;;;;;;14.77;83.80;101660.33;115813;1192;61686;-78
2021/09/28 08:14:27;;;;;;;12.00;4.80;;;;;;;14.75;84.48;101658.23;115657;1192;61223;-77
2021/09/28 08:16:54;;;;;;;14.60;6.70;;;;;;;14.72;84.63;101660.65;115890;1192;59204;-77
2021/09/28 08:19:20;;;;;;;16.80;9.10;;;;;;;14.80;86.51;101665.48;115713;1187;58833;-78
2021/09/28 08:21:47;;;;;;;18.00;9.10;;;;;;;14.85;86.68;101668.40;115804;1187;58927;-77
2021/09/28 08:24:15;;;;;;;20.60;9.90;;;;;;;14.92;86.19;101669.15;115835;1192;62701;-77
2021/09/28 08:29:26;;;;;;;24.10;11.30;;;;;;;14.99;85.35;101671.61;115696;1193;74622;-77
2021/09/28 08:31:53;;;;;;;20.30;10.10;;;;;;;15.05;84.73;101673.89;115881;1192;70559;-78
2021/09/28 08:34:20;;;;;;;21.30;11.00;;;;;;;15.10;84.16;101674.74;115897;1192;58720;-78
2021/09/28 08:36:48;;;;;;;26.50;14.60;;;;;;;15.19;84.15;101672.63;115857;1192;61786;-78
2021/09/28 08:39:16;;;;;;;34.50;19.80;;;;;;;15.24;82.99;101674.39;115675;1193;60190;-76
2021/09/28 08:41:47;;;;;;;25.60;13.40;;;;;;;15.22;82.97;101675.10;115878;1193;74634;-75
2021/09/28 08:44:15;;;;;;;22.60;13.00;;;;;;;15.22;83.30;101676.88;115731;1193;71016;-76
2021/09/28 08:46:46;;;;;;;22.70;11.90;;;;;;;15.23;83.57;101679.84;115890;1193;73648;-76
2021/09/28 08:49:14;;;;;;;20.60;9.60;;;;;;;15.22;82.30;101679.98;115836;1193;61993;-78
2021/09/28 08:51:43;;;;;;;19.20;8.70;;;;;;;15.13;81.65;101681.02;115895;1193;60946;-77
2021/09/28 08:54:09;;;;;;;26.90;15.60;;;;;;;15.14;82.96;101685.75;115819;1193;74347;-77
2021/09/28 08:56:36;;;;;;;25.80;12.80;;;;;;;15.28;83.40;101687.48;115817;1192;71026;-77
2021/09/28 08:59:07;;;;;;;25.70;13.40;;;;;;;15.40;82.46;101688.45;115801;1193;58883;-76
2021/09/28 09:01:35;;;;;;;29.00;14.00;;;;;;;15.47;81.48;101691.32;115642;1187;62613;-76
2021/09/28 09:04:14;;;;;;;30.10;16.80;;;;;;;15.48;80.90;101691.92;115743;1193;61301;-77
2021/09/28 09:06:41;;;;;;;22.60;10.40;;;;;;;15.56;81.80;101688.77;115851;1193;74580;-77
2021/09/28 09:09:07;;;;;;;17.80;10.00;;;;;;;15.64;80.86;101690.95;115830;1192;71992;-77
2021/09/28 09:11:42;;;;;;;22.80;11.60;;;;;;;15.70;79.77;101690.79;115883;1193;58870;-77
2021/09/28 09:14:23;;;;;;;21.90;11.40;;;;;;;15.80;79.95;101687.45;115686;1193;62003;-77
2021/09/28 09:16:53;;;;;;;25.60;14.20;;;;;;;15.86;79.03;101684.96;115830;1193;61204;-77
2021/09/28 09:19:29;;;;;;;24.70;12.00;;;;;;;15.86;78.12;101685.86;115836;1193;74294;-77
2021/09/28 09:22:00;;;;;;;30.90;15.90;;;;;;;15.87;78.47;101682.48;115669;1193;71083;-77
2021/09/28 09:24:38;;;;;;;27.70;14.20;;;;;;;15.89;77.96;101677.08;115713;1193;72671;-77
2021/09/28 09:27:05;;;;;;;19.00;10.10;;;;;;;15.91;77.94;101680.08;115811;1193;61852;-76
2021/09/28 09:29:38;;;;;;;15.80;9.10;;;;;;;15.95;77.85;101678.80;115782;1193;61255;-76
2021/09/28 09:32:05;;;;;;;18.50;9.60;;;;;;;16.02;77.67;101677.00;115791;1193;74994;-77
2021/09/28 09:34:32;;;;;;;23.40;12.00;;;;;;;16.11;77.62;101678.92;115830;1193;71556;-77
2021/09/28 09:37:03;;;;;;;14.20;7.90;;;;;;;16.19;77.36;101676.88;115699;1193;72701;-77
2021/09/28 09:40:03;;;;;;;29.80;18.10;;;;;;;16.33;76.78;101676.23;115780;1193;61984;-76
2021/09/28 09:42:29;;;;;;;14.60;8.30;;;;;;;16.47;76.31;101677.30;115678;1193;60111;-76
2021/09/28 09:45:23;;;;;;;18.30;8.80;;;;;;;16.53;74.29;101671.94;115869;1192;76099;-77
2021/09/28 09:47:50;;;;;;;19.50;9.20;;;;;;;16.68;74.51;101676.17;115715;1193;71038;-77
2021/09/28 09:50:19;;;;;;;16.10;8.60;;;;;;;16.85;74.38;101677.86;115657;1193;74438;-78
2021/09/28 09:53:07;;;;;;;14.10;6.90;;;;;;;16.94;73.81;101673.84;115668;1193;60158;-77
2021/09/28 09:55:38;;;;;;;23.30;12.50;;;;;;;16.99;73.09;101673.75;115686;1193;60246;-77
2021/09/28 09:58:06;;;;;;;17.00;9.90;;;;;;;17.14;72.81;101676.42;115824;1193;74303;-76
2021/09/28 10:00:33;;;;;;;14.10;8.70;;;;;;;17.28;72.75;101668.36;115830;1193;71094;-76
2021/09/28 10:03:00;;;;;;;17.80;8.50;;;;;;;17.46;71.80;101662.88;115800;1192;72179;-77
2021/09/28 10:05:27;;;;;;;21.40;11.80;;;;;;;17.52;70.56;101659.11;115830;1193;60271;-77
2021/09/28 10:07:55;;;;;;;12.80;7.00;;;;;;;17.61;70.65;101659.70;115686;1193;60333;-77
2021/09/28 10:10:22;;;;;;;17.60;9.30;;;;;;;17.70;70.46;101663.87;115742;1193;75799;-76
2021/09/28 10:12:50;;;;;;;12.30;6.90;;;;;;;17.83;69.94;101665.73;115674;1193;72193;-77
2021/09/28 10:15:17;;;;;;;19.80;8.40;;;;;;;17.89;69.29;101664.42;115654;1193;73679;-77
2021/09/28 10:17:46;;;;;;;18.40;8.90;;;;;;;17.97;69.21;101667.42;115827;1192;62901;-77
2021/09/28 10:20:22;;;;;;;14.90;8.50;;;;;;;17.93;68.57;101660.71;115760;1193;61219;-77
2021/09/28 10:22:56;;;;;;;18.60;9.60;;;;;;;17.88;68.84;101662.05;115734;1185;75800;-77
2021/09/28 10:25:26;;;;;;;17.50;8.80;;;;;;;17.75;68.31;101659.15;115803;1192;72832;-77
2021/09/28 10:28:14;;;;;;;11.60;6.70;;;;;;;17.79;69.28;101658.42;115687;1193;72636;-76
2021/09/28 10:30:42;;;;;;;16.20;8.70;;;;;;;17.91;68.48;101654.05;115748;1193;62777;-76
2021/09/28 10:33:13;;;;;;;14.00;8.80;;;;;;;18.04;68.09;101659.15;115785;1193;59897;-76
2021/09/28 10:36:00;;;;;;;18.00;11.20;;;;;;;18.08;67.52;101661.09;115803;1193;74894;-76
2021/09/28 10:38:53;;;;;;;21.20;12.40;;;;;;;18.13;68.33;101662.45;115785;1192;72032;-77
2021/09/28 10:41:29;;;;;;;15.20;8.50;;;;;;;18.14;67.71;101663.73;115804;1193;73363;-77
2021/09/28 10:44:26;;;;;;;15.90;9.70;;;;;;;18.20;67.32;101658.00;115778;1193;61742;-77
2021/09/28 10:46:53;;;;;;;27.20;16.10;;;;;;;18.34;69.01;101655.15;115774;1192;60378;-77
2021/09/28 10:49:32;;;;;;;13.60;8.10;;;;;;;18.49;67.32;101652.81;115773;1193;74603;-77
2021/09/28 10:52:20;;;;;;;12.60;7.40;;;;;;;18.46;65.24;101654.19;115797;1192;71982;-77
2021/09/28 10:55:05;;;;;;;10.50;6.70;;;;;;;18.51;65.54;101649.77;115801;1192;73629;-77
2021/09/28 10:57:54;;;;;;;24.20;14.00;;;;;;;18.56;65.97;101647.80;115829;1193;61401;-77
2021/09/28 11:00:26;;;;;;;12.90;7.00;;;;;;;18.65;66.27;101648.91;115830;1192;61788;-77
2021/09/28 11:02:59;;;;;;;9.00;6.60;;;;;;;18.74;64.95;101642.48;115805;1193;75579;-77
2021/09/28 11:05:32;;;;;;;21.50;12.30;;;;;;;18.79;64.14;101646.77;115814;1192;69989;-77
2021/09/28 11:08:01;;;;;;;8.30;6.10;;;;;;;18.84;64.26;101642.27;115762;1192;72277;-80
2021/09/28 11:10:31;;;;;;;10.80;5.90;;;;;;;18.98;65.00;101639.38;115685;1193;61638;-77
2021/09/28 11:13:05;;;;;;;9.50;6.50;;;;;;;19.08;63.39;101638.61;115820;1193;61568;-77
2021/09/28 11:15:32;;;;;;;13.90;6.70;;;;;;;19.19;64.17;101634.67;115747;1193;75598;-77